createdAt,value
2019-06-07T00:00:04.461Z,100662.12
2019-06-07T00:02:16.371Z,100657.02
2019-06-07T00:04:21.633Z,100657.02
2019-06-07T00:06:27.915Z,100666.97
2019-06-07T00:08:34.168Z,100655.20
2019-06-07T00:10:40.523Z,100657.25
2019-06-07T00:12:46.679Z,100648.86
2019-06-07T00:14:52.841Z,100649.81
2019-06-07T00:16:59.110Z,100652.48
2019-06-07T00:19:05.271Z,100652.71
2019-06-07T00:21:11.920Z,100657.42
2019-06-07T00:23:20.697Z,100659.37
2019-06-07T00:25:26.302Z,100655.61
2019-06-07T00:27:32.549Z,100663.72
2019-06-07T00:29:38.711Z,100664.94
2019-06-07T00:31:47.734Z,100662.89
2019-06-07T00:33:53.966Z,100663.84
2019-06-07T00:36:00.296Z,100666.52
2019-06-07T00:38:06.522Z,100669.41
2019-06-07T00:40:17.851Z,100674.84
2019-06-07T00:42:24.221Z,100667.20
2019-06-07T00:44:30.793Z,100664.77
2019-06-07T00:46:36.982Z,100672.86
2019-06-07T00:48:43.260Z,100672.14
2019-06-07T00:50:49.604Z,100683.13
2019-06-07T00:53:14.591Z,100675.36
2019-06-07T00:55:04.808Z,100682.50
2019-06-07T00:57:12.421Z,100676.41
2019-06-07T00:59:28.851Z,100682.92
2019-06-07T01:01:31.777Z,100684.73
2019-06-07T01:03:39.482Z,100687.53
2019-06-07T01:05:45.718Z,100683.38
2019-06-07T01:07:51.896Z,100678.36
2019-06-07T01:09:58.155Z,100689.25
2019-06-07T01:12:05.020Z,100689.38
2019-06-07T01:14:11.337Z,100691.28
2019-06-07T01:16:18.777Z,100687.03
2019-06-07T01:18:37.366Z,100681.06
2019-06-07T01:20:33.427Z,100682.14
2019-06-07T01:22:39.585Z,100676.18
2019-06-07T01:24:45.954Z,100677.89
2019-06-07T01:26:53.170Z,100670.21
2019-06-07T01:28:59.836Z,100664.25
2019-06-07T01:31:07.204Z,100660.63
2019-06-07T01:33:13.656Z,100664.37
2019-06-07T01:35:21.416Z,100656.60
2019-06-07T01:37:30.165Z,100662.03
2019-06-07T01:39:35.921Z,100668.44
2019-06-07T01:41:42.074Z,100679.19
2019-06-07T01:43:48.335Z,100681.12
2019-06-07T01:45:54.500Z,100686.54
2019-06-07T01:48:00.953Z,100681.34
2019-06-07T01:50:09.785Z,100679.84
2019-06-07T01:52:16.591Z,100673.66
2019-06-07T01:56:30.707Z,100684.33
2019-06-07T01:58:37.078Z,100680.08
2019-06-07T02:00:44.354Z,100683.05
2019-06-07T02:02:50.839Z,100683.69
2019-06-07T02:04:57.499Z,100691.98
2019-06-07T02:07:03.769Z,100692.11
2019-06-07T02:09:10.622Z,100697.31
2019-06-07T02:11:18.080Z,100687.05
2019-06-07T02:13:27.826Z,100688.86
2019-06-07T02:15:36.624Z,100690.48
2019-06-07T02:17:40.800Z,100683.17
2019-06-07T02:19:46.951Z,100681.55
2019-06-07T02:21:53.110Z,100687.82
2019-06-07T02:23:59.311Z,100695.17
2019-06-07T02:26:05.737Z,100698.69
2019-06-07T02:28:27.310Z,100699.64
2019-06-07T02:30:44.207Z,100696.23
2019-06-07T02:32:31.991Z,100691.09
2019-06-07T02:34:39.639Z,100689.29
2019-06-07T02:36:44.214Z,100697.28
2019-06-07T02:38:50.360Z,100691.86
2019-06-07T02:40:56.538Z,100693.58
2019-06-07T02:43:02.775Z,100697.92
2019-06-07T02:45:11.194Z,100703.16
2019-06-07T02:47:17.856Z,100698.69
2019-06-07T02:49:26.865Z,100703.03
2019-06-07T02:51:35.799Z,100702.17
2019-06-07T02:53:40.501Z,100707.36
2019-06-07T02:56:34.374Z,100700.19
2019-06-07T02:57:54.705Z,100689.32
2019-06-07T03:00:26.032Z,100693.27
2019-06-07T03:02:10.483Z,100694.65
2019-06-07T03:04:17.006Z,100686.48
2019-06-07T03:06:33.261Z,100692.62
2019-06-07T03:08:38.249Z,100710.63
2019-06-07T03:10:48.735Z,100705.70
2019-06-07T03:12:55.915Z,100703.89
2019-06-07T03:15:03.981Z,100702.30
2019-06-07T03:17:14.779Z,100706.03
2019-06-07T03:19:26.459Z,100710.29
2019-06-07T03:21:37.549Z,100710.38
2019-06-07T03:23:45.750Z,100715.61
2019-06-07T03:25:54.470Z,100712.73
2019-06-07T03:28:00.730Z,100714.27
2019-06-07T03:30:36.490Z,100720.24
2019-06-07T03:32:16.529Z,100726.00
2019-06-07T03:34:22.786Z,100724.62
2019-06-07T03:36:29.694Z,100718.00
2019-06-07T03:38:39.640Z,100725.23
2019-06-07T03:40:45.256Z,100729.70
2019-06-07T03:42:51.424Z,100734.41
2019-06-07T03:44:57.667Z,100726.88
2019-06-07T03:47:03.842Z,100724.52
2019-06-07T03:49:09.981Z,100725.31
2019-06-07T03:51:24.519Z,100710.08
2019-06-07T03:53:24.127Z,100719.66
2019-06-07T03:55:34.856Z,100724.13
2019-06-07T03:58:29.138Z,100731.84
2019-06-07T03:59:46.189Z,100740.23
2019-06-07T04:01:53.114Z,100753.20
2019-06-07T04:03:59.237Z,100757.65
2019-06-07T04:06:05.384Z,100755.73
2019-06-07T04:08:11.554Z,100756.81
2019-06-07T04:10:18.013Z,100755.52
2019-06-07T04:12:24.174Z,100760.56
2019-06-07T04:14:30.928Z,100754.64
2019-06-07T04:16:41.682Z,100757.12
2019-06-07T04:18:46.141Z,100750.76
2019-06-07T04:20:53.422Z,100759.30
2019-06-07T04:22:59.683Z,100763.99
2019-06-07T04:25:11.408Z,100754.19
2019-06-07T04:27:17.632Z,100759.30
2019-06-07T04:29:33.320Z,100768.16
2019-06-07T04:31:32.639Z,100767.30
2019-06-07T04:33:43.347Z,100766.66
2019-06-07T04:35:47.582Z,100771.64
2019-06-07T04:37:54.250Z,100774.88
2019-06-07T04:40:01.450Z,100766.34
2019-06-07T04:42:08.601Z,100765.67
2019-06-07T04:44:17.027Z,100770.41
2019-06-07T04:46:24.720Z,100767.56
2019-06-07T04:48:35.955Z,100774.89
2019-06-07T04:50:44.083Z,100772.22
2019-06-07T04:52:49.521Z,100767.06
2019-06-07T04:54:56.188Z,100765.28
2019-06-07T04:57:02.374Z,100769.14
2019-06-07T04:59:08.523Z,100779.62
2019-06-07T05:01:26.746Z,100773.82
2019-06-07T05:03:24.329Z,100779.42
2019-06-07T05:05:31.890Z,100782.09
2019-06-07T05:07:43.006Z,100782.19
2019-06-07T05:09:46.035Z,100778.11
2019-06-07T05:11:52.324Z,100773.44
2019-06-07T05:13:58.692Z,100782.32
2019-06-07T05:16:04.974Z,100783.69
2019-06-07T05:18:12.154Z,100782.84
2019-06-07T05:20:19.116Z,100791.95
2019-06-07T05:22:25.271Z,100778.00
2019-06-07T05:24:35.568Z,100777.03
2019-06-07T05:26:42.248Z,100777.70
2019-06-07T05:28:47.331Z,100774.17
2019-06-07T05:31:05.350Z,100776.09
2019-06-07T05:33:01.402Z,100782.05
2019-06-07T05:35:09.985Z,100782.06
2019-06-07T05:37:16.374Z,100784.37
2019-06-07T05:39:22.633Z,100783.61
2019-06-07T05:41:28.887Z,100782.10
2019-06-07T05:43:39.321Z,100783.95
2019-06-07T05:45:46.809Z,100796.48
2019-06-07T05:47:51.419Z,100805.62
2019-06-07T05:49:57.966Z,100806.22
2019-06-07T05:52:04.617Z,100816.12
2019-06-07T05:54:10.639Z,100806.68
2019-06-07T05:56:17.260Z,100803.38
2019-06-07T05:58:23.677Z,100815.98
2019-06-07T06:00:29.939Z,100811.00
2019-06-07T06:02:58.657Z,100803.72
2019-06-07T06:04:48.785Z,100799.71
2019-06-07T06:06:51.806Z,100800.98
2019-06-07T06:09:13.558Z,100804.95
2019-06-07T06:11:06.250Z,100806.72
2019-06-07T06:13:12.514Z,100805.61
2019-06-07T06:15:18.888Z,100804.81
2019-06-07T06:17:25.034Z,100810.06
2019-06-07T06:19:31.197Z,100802.72
2019-06-07T06:21:38.523Z,100804.38
2019-06-07T06:23:52.079Z,100805.28
2019-06-07T06:25:57.916Z,100799.92
2019-06-07T06:28:11.483Z,100800.99
2019-06-07T06:30:13.934Z,100793.88
2019-06-07T06:34:27.933Z,100792.39
2019-06-07T06:36:34.707Z,100805.02
2019-06-07T06:38:41.382Z,100810.32
2019-06-07T06:40:52.719Z,100814.25
2019-06-07T06:42:56.213Z,100808.92
2019-06-07T06:45:02.627Z,100816.73
2019-06-07T06:47:09.173Z,100821.34
2019-06-07T06:49:15.426Z,100819.64
2019-06-07T06:51:21.495Z,100813.58
2019-06-07T06:53:27.741Z,100818.45
2019-06-07T06:55:33.922Z,100819.32
2019-06-07T06:57:41.801Z,100820.73
2019-06-07T06:59:52.072Z,100831.78
2019-06-07T07:01:55.764Z,100833.44
2019-06-07T07:04:12.154Z,100835.16
2019-06-07T07:06:25.152Z,100841.22
2019-06-07T07:08:18.842Z,100843.05
2019-06-07T07:10:38.526Z,100834.30
2019-06-07T07:12:45.495Z,100843.20
2019-06-07T07:14:55.241Z,100840.94
2019-06-07T07:16:59.464Z,100842.25
2019-06-07T07:19:05.918Z,100841.95
2019-06-07T07:21:12.282Z,100843.69
2019-06-07T07:23:18.560Z,100833.63
2019-06-07T07:25:24.901Z,100846.06
2019-06-07T07:27:30.955Z,100854.99
2019-06-07T07:29:37.141Z,100853.16
2019-06-07T07:31:45.467Z,100861.20
2019-06-07T07:38:06.983Z,100854.13
2019-06-07T07:40:55.463Z,100855.67
2019-06-07T07:42:21.874Z,100858.22
2019-06-07T07:44:28.119Z,100853.77
2019-06-07T07:46:35.474Z,100854.16
2019-06-07T07:48:41.980Z,100856.91
2019-06-07T07:50:51.707Z,100851.14
2019-06-07T07:53:00.690Z,100853.70
2019-06-07T07:55:04.949Z,100861.41
2019-06-07T07:57:11.196Z,100860.36
2019-06-07T07:59:17.575Z,100858.44
2019-06-07T08:01:23.931Z,100858.52
2019-06-07T08:03:30.190Z,100853.46
2019-06-07T08:05:42.784Z,100851.01
2019-06-07T08:07:44.455Z,100855.10
2019-06-07T08:09:55.394Z,100854.08
2019-06-07T08:12:00.708Z,100852.23
2019-06-07T08:14:06.416Z,100854.63
2019-06-07T08:16:16.485Z,100854.94
2019-06-07T08:18:21.391Z,100852.23
2019-06-07T08:20:27.647Z,100851.00
2019-06-07T08:22:33.902Z,100846.25
2019-06-07T08:24:40.076Z,100848.78
2019-06-07T08:27:12.366Z,100847.88
2019-06-07T08:28:56.948Z,100849.71
2019-06-07T08:31:06.924Z,100853.02
2019-06-07T08:33:25.416Z,100857.80
2019-06-07T08:36:02.950Z,100855.58
2019-06-07T08:38:13.143Z,100861.52
2019-06-07T08:39:34.869Z,100862.20
2019-06-07T08:41:54.169Z,100861.41
2019-06-07T08:43:50.773Z,100865.03
2019-06-07T08:46:03.735Z,100853.18
2019-06-07T08:48:18.218Z,100857.58
2019-06-07T08:50:16.179Z,100857.58
2019-06-07T08:52:22.489Z,100856.37
2019-06-07T08:54:29.011Z,100857.08
2019-06-07T08:56:35.270Z,100856.19
2019-06-07T08:58:42.755Z,100855.56
2019-06-07T09:00:49.139Z,100857.90
2019-06-07T09:02:58.043Z,100855.91
2019-06-07T09:05:11.779Z,100854.25
2019-06-07T09:07:19.494Z,100857.58
2019-06-07T09:09:19.410Z,100856.31
2019-06-07T09:11:25.617Z,100860.83
2019-06-07T09:13:33.324Z,100851.81
2019-06-07T09:15:40.090Z,100842.36
2019-06-07T09:18:30.281Z,100842.09
2019-06-07T09:19:58.967Z,100841.77
2019-06-07T09:22:10.240Z,100844.70
2019-06-07T09:24:13.056Z,100849.34
2019-06-07T09:26:20.029Z,100843.59
2019-06-07T09:28:27.751Z,100840.59
2019-06-07T09:30:45.760Z,100841.30
2019-06-07T09:32:51.978Z,100838.78
2019-06-07T09:35:02.479Z,100832.79
2019-06-07T09:37:41.492Z,100839.72
2019-06-07T09:39:14.168Z,100839.26
2019-06-07T09:41:20.424Z,100829.97
2019-06-07T09:45:35.594Z,100831.58
2019-06-07T09:47:41.973Z,100826.55
2019-06-07T09:49:48.138Z,100834.13
2019-06-07T09:51:54.317Z,100830.47
2019-06-07T09:54:04.314Z,100827.73
2019-06-07T09:56:12.268Z,100844.95
2019-06-07T10:00:44.563Z,100834.92
2019-06-07T10:02:38.594Z,100844.08
2019-06-07T10:04:44.752Z,100841.83
2019-06-07T10:06:52.351Z,100847.51
2019-06-07T10:10:08.168Z,100848.73
2019-06-07T10:11:10.196Z,100851.67
2019-06-07T10:13:37.310Z,100842.39
2019-06-07T10:15:43.914Z,100850.67
2019-06-07T10:17:50.182Z,100844.94
2019-06-07T10:19:56.445Z,100841.02
2019-06-07T10:22:03.417Z,100840.87
2019-06-07T10:24:09.830Z,100846.31
2019-06-07T10:26:16.233Z,100836.80
2019-06-07T10:28:22.431Z,100842.22
2019-06-07T10:30:28.786Z,100839.69
2019-06-07T10:32:35.033Z,100839.17
2019-06-07T10:34:41.179Z,100836.28
2019-06-07T10:36:48.777Z,100843.87
2019-06-07T10:38:55.023Z,100847.45
2019-06-07T10:41:01.303Z,100849.95
2019-06-07T10:43:07.561Z,100844.54
2019-06-07T10:45:14.672Z,100840.25
2019-06-07T10:47:20.895Z,100845.62
2019-06-07T10:49:27.051Z,100838.75
2019-06-07T10:51:33.286Z,100840.67
2019-06-07T10:53:39.464Z,100839.17
2019-06-07T10:55:45.638Z,100834.20
2019-06-07T10:57:53.484Z,100836.38
2019-06-07T11:00:01.243Z,100841.26
2019-06-07T11:02:09.651Z,100846.44
2019-06-07T11:04:16.103Z,100833.46
2019-06-07T11:06:22.521Z,100837.48
2019-06-07T11:08:28.813Z,100831.41
2019-06-07T11:10:34.972Z,100827.01
2019-06-07T11:12:41.154Z,100824.83
2019-06-07T11:14:47.606Z,100826.08
2019-06-07T11:16:54.076Z,100821.17
2019-06-07T11:19:00.340Z,100822.09
2019-06-07T11:21:06.516Z,100827.17
2019-06-07T11:23:12.686Z,100828.53
2019-06-07T11:25:19.620Z,100825.99
2019-06-07T11:27:26.009Z,100819.24
2019-06-07T11:29:35.459Z,100824.80
2019-06-07T11:31:41.664Z,100822.27
2019-06-07T11:33:47.694Z,100819.67
2019-06-07T11:35:53.803Z,100818.83
2019-06-07T11:38:01.013Z,100825.03
2019-06-07T11:40:35.546Z,100819.80
2019-06-07T11:42:22.287Z,100818.98
2019-06-07T11:44:28.468Z,100812.47
2019-06-07T11:46:34.743Z,100808.41
2019-06-07T11:48:41.393Z,100800.45
2019-06-07T11:50:47.555Z,100801.57
2019-06-07T11:52:53.652Z,100802.61
2019-06-07T11:54:59.870Z,100810.23
2019-06-07T11:57:06.864Z,100808.58
2019-06-07T11:59:13.518Z,100806.91
2019-06-07T12:01:19.785Z,100805.63
2019-06-07T12:03:26.144Z,100800.45
2019-06-07T12:05:32.428Z,100798.05
2019-06-07T12:07:38.763Z,100802.65
2019-06-07T12:09:56.029Z,100803.12
2019-06-07T12:11:52.935Z,100802.27
2019-06-07T12:14:00.227Z,100808.80
2019-06-07T12:16:06.983Z,100804.47
2019-06-07T12:18:13.247Z,100796.77
2019-06-07T12:20:21.133Z,100807.73
2019-06-07T12:22:27.396Z,100812.56
2019-06-07T12:24:33.555Z,100814.55
2019-06-07T12:26:39.850Z,100817.72
2019-06-07T12:28:46.596Z,100820.63
2019-06-07T12:30:55.238Z,100823.90
2019-06-07T12:33:02.636Z,100818.05
2019-06-07T12:35:11.355Z,100819.55
2019-06-07T12:37:22.454Z,100821.98
2019-06-07T12:39:27.155Z,100817.64
2019-06-07T12:41:37.157Z,100813.34
2019-06-07T12:43:43.852Z,100815.91
2019-06-07T12:45:50.095Z,100821.44
2019-06-07T12:48:00.239Z,100813.27
2019-06-07T12:50:10.603Z,100823.14
2019-06-07T12:52:19.392Z,100836.78
2019-06-07T12:54:24.955Z,100829.39
2019-06-07T12:56:31.118Z,100839.47
2019-06-07T12:58:39.610Z,100839.13
2019-06-07T13:00:45.998Z,100843.30
2019-06-07T13:02:52.691Z,100843.68
2019-06-07T13:04:58.927Z,100843.89
2019-06-07T13:07:05.507Z,100848.77
2019-06-07T13:09:13.407Z,100845.66
2019-06-07T13:11:26.099Z,100841.27
2019-06-07T13:13:34.914Z,100845.05
2019-06-07T13:15:42.504Z,100836.83
2019-06-07T13:17:48.788Z,100835.56
2019-06-07T13:19:55.415Z,100832.34
2019-06-07T13:22:01.609Z,100826.41
2019-06-07T13:24:08.298Z,100823.86
2019-06-07T13:26:16.923Z,100818.48
2019-06-07T13:28:25.217Z,100827.78
2019-06-07T13:30:36.490Z,100821.94
2019-06-07T13:32:43.856Z,100826.56
2019-06-07T13:34:50.440Z,100820.88
2019-06-07T13:36:56.603Z,100828.95
2019-06-07T13:39:02.847Z,100829.20
2019-06-07T13:41:09.110Z,100826.78
2019-06-07T13:43:15.262Z,100831.63
2019-06-07T13:45:22.340Z,100837.38
2019-06-07T13:47:28.820Z,100846.89
2019-06-07T13:49:36.213Z,100840.77
2019-06-07T13:51:42.466Z,100836.70
2019-06-07T13:53:48.726Z,100834.30
2019-06-07T13:55:55.187Z,100832.59
2019-06-07T13:58:01.440Z,100839.33
2019-06-07T14:00:12.001Z,100842.23
2019-06-07T14:02:23.489Z,100844.80
2019-06-07T14:04:29.236Z,100843.63
2019-06-07T14:06:35.807Z,100845.26
2019-06-07T14:08:41.987Z,100849.04
2019-06-07T14:10:48.041Z,100849.29
2019-06-07T14:12:54.081Z,100844.77
2019-06-07T14:15:00.650Z,100843.14
2019-06-07T14:17:06.807Z,100850.23
2019-06-07T14:19:13.172Z,100847.78
2019-06-07T14:21:20.399Z,100851.38
2019-06-07T14:23:42.445Z,100849.98
2019-06-07T14:25:34.603Z,100854.34
2019-06-07T14:27:40.872Z,100850.73
2019-06-07T14:29:47.232Z,100857.25
2019-06-07T14:31:53.386Z,100855.03
2019-06-07T14:33:59.551Z,100854.80
2019-06-07T14:36:05.753Z,100857.02
2019-06-07T14:38:12.798Z,100854.86
2019-06-07T14:40:20.593Z,100854.01
2019-06-07T14:42:27.093Z,100857.94
2019-06-07T14:44:33.905Z,100865.41
2019-06-07T14:46:40.188Z,100864.33
2019-06-07T14:48:46.345Z,100873.50
2019-06-07T14:50:52.481Z,100871.53
2019-06-07T14:52:58.636Z,100874.98
2019-06-07T14:55:08.467Z,100878.46
2019-06-07T14:57:14.646Z,100884.95
2019-06-07T14:59:20.924Z,100893.48
2019-06-07T15:01:28.499Z,100887.65
2019-06-07T15:03:34.896Z,100890.28
2019-06-07T15:05:41.125Z,100890.77
2019-06-07T15:07:47.307Z,100889.16
2019-06-07T15:09:53.431Z,100890.28
2019-06-07T15:11:59.600Z,100883.48
2019-06-07T15:14:06.907Z,100885.97
2019-06-07T15:16:13.148Z,100901.25
2019-06-07T15:18:19.821Z,100893.34
2019-06-07T15:20:25.982Z,100883.44
2019-06-07T15:22:32.246Z,100882.58
2019-06-07T15:24:40.506Z,100884.13
2019-06-07T15:26:46.412Z,100889.08
2019-06-07T15:28:54.154Z,100891.50
2019-06-07T15:31:00.236Z,100899.30
2019-06-07T15:33:06.412Z,100894.09
2019-06-07T15:35:12.938Z,100893.94
2019-06-07T15:37:20.572Z,100889.25
2019-06-07T15:39:28.345Z,100891.80
2019-06-07T15:41:35.063Z,100891.48
2019-06-07T15:43:41.494Z,100886.53
2019-06-07T15:45:47.865Z,100889.92
2019-06-07T15:47:54.016Z,100898.73
2019-06-07T15:50:00.269Z,100903.14
2019-06-07T15:52:06.457Z,100899.11
2019-06-07T15:54:12.854Z,100907.09
2019-06-07T15:56:19.061Z,100900.27
2019-06-07T15:58:25.325Z,100909.89
2019-06-07T16:00:31.519Z,100915.84
2019-06-07T16:02:37.751Z,100921.95
2019-06-07T16:04:43.900Z,100917.63
2019-06-07T16:06:50.057Z,100919.60
2019-06-07T16:08:56.227Z,100919.14
2019-06-07T16:11:02.689Z,100918.89
2019-06-07T16:13:09.970Z,100927.18
2019-06-07T16:15:17.740Z,100936.20
2019-06-07T16:17:24.437Z,100937.41
2019-06-07T16:19:30.697Z,100934.09
2019-06-07T16:21:37.397Z,100932.06
2019-06-07T16:23:44.105Z,100934.36
2019-06-07T16:25:50.506Z,100934.00
2019-06-07T16:27:56.782Z,100937.50
2019-06-07T16:30:08.970Z,100932.23
2019-06-07T16:32:14.617Z,100922.73
2019-06-07T16:34:20.864Z,100915.47
2019-06-07T16:36:27.129Z,100907.04
2019-06-07T16:38:33.378Z,100909.72
2019-06-07T16:40:40.350Z,100910.38
2019-06-07T16:42:46.951Z,100910.30
2019-06-07T16:44:53.210Z,100913.85
2019-06-07T16:46:59.555Z,100919.97
2019-06-07T16:49:05.717Z,100920.05
2019-06-07T16:51:11.979Z,100913.28
2019-06-07T16:53:19.549Z,100920.03
2019-06-07T16:55:25.733Z,100922.86
2019-06-07T16:57:32.011Z,100927.91
2019-06-07T16:59:38.795Z,100918.63
2019-06-07T17:01:45.354Z,100915.41
2019-06-07T17:03:51.575Z,100915.85
2019-06-07T17:05:57.838Z,100911.67
2019-06-07T17:08:04.675Z,100913.02
2019-06-07T17:10:13.499Z,100914.97
2019-06-07T17:12:20.022Z,100922.90
2019-06-07T17:14:26.280Z,100920.75
2019-06-07T17:16:32.518Z,100921.59
2019-06-07T17:18:39.045Z,100918.17
2019-06-07T17:20:47.386Z,100912.11
2019-06-07T17:22:54.911Z,100916.99
2019-06-07T17:25:01.154Z,100922.95
2019-06-07T17:27:08.396Z,100920.16
2019-06-07T17:29:14.682Z,100912.37
2019-06-07T17:31:21.278Z,100908.23
2019-06-07T17:33:28.559Z,100914.13
2019-06-07T17:35:34.802Z,100912.56
2019-06-07T17:37:43.166Z,100909.14
2019-06-07T17:39:50.905Z,100915.63
2019-06-07T17:42:02.171Z,100914.44
2019-06-07T17:44:05.590Z,100911.05
2019-06-07T17:46:11.936Z,100915.84
2019-06-07T17:48:18.122Z,100909.17
2019-06-07T17:50:24.243Z,100906.86
2019-06-07T17:52:32.777Z,100906.27
2019-06-07T17:54:39.049Z,100915.52
2019-06-07T17:56:46.307Z,100916.86
2019-06-07T17:58:52.587Z,100917.52
2019-06-07T18:00:58.855Z,100912.41
2019-06-07T18:03:06.014Z,100922.52
2019-06-07T18:05:13.215Z,100922.03
2019-06-07T18:07:21.757Z,100927.89
2019-06-07T18:09:28.777Z,100918.53
2019-06-07T18:11:34.937Z,100928.50
2019-06-07T18:13:41.163Z,100930.58
2019-06-07T18:15:53.963Z,100933.28
2019-06-07T18:17:57.827Z,100935.35
2019-06-07T18:20:05.736Z,100932.92
2019-06-07T18:22:11.885Z,100933.88
2019-06-07T18:24:18.364Z,100934.84
2019-06-07T18:26:24.622Z,100923.56
2019-06-07T18:28:30.777Z,100931.95
2019-06-07T18:30:37.810Z,100935.80
2019-06-07T18:32:44.123Z,100934.23
2019-06-07T18:34:50.815Z,100927.30
2019-06-07T18:36:59.300Z,100931.28
2019-06-07T18:39:09.101Z,100930.56
2019-06-07T18:41:15.732Z,100929.34
2019-06-07T18:43:21.954Z,100924.47
2019-06-07T18:45:30.397Z,100918.64
2019-06-07T18:47:36.367Z,100927.12
2019-06-07T18:49:42.703Z,100928.70
2019-06-07T18:51:52.353Z,100920.30
2019-06-07T18:53:58.520Z,100936.69
2019-06-07T18:56:05.126Z,100935.11
2019-06-07T18:58:11.675Z,100933.53
2019-06-07T19:00:24.164Z,100939.97
2019-06-07T19:02:30.544Z,100942.13
2019-06-07T19:04:36.918Z,100941.64
2019-06-07T19:06:43.264Z,100947.29
2019-06-07T19:08:53.129Z,100943.98
2019-06-07T19:10:58.894Z,100951.39
2019-06-07T19:13:05.985Z,100944.36
2019-06-07T19:15:15.990Z,100950.66
2019-06-07T19:17:22.638Z,100949.19
2019-06-07T19:19:29.042Z,100947.70
2019-06-07T19:21:35.573Z,100949.78
2019-06-07T19:23:42.169Z,100952.88
2019-06-07T19:25:48.414Z,100955.05
2019-06-07T19:27:55.053Z,100957.23
2019-06-07T19:30:01.348Z,100957.33
2019-06-07T19:32:07.695Z,100949.64
2019-06-07T19:34:13.954Z,100957.16
2019-06-07T19:36:20.321Z,100956.75
2019-06-07T19:38:26.793Z,100964.36
2019-06-07T19:40:33.406Z,100954.00
2019-06-07T19:42:39.825Z,100952.64
2019-06-07T19:44:54.247Z,100962.69
2019-06-07T19:46:54.347Z,100957.86
2019-06-07T19:49:00.975Z,100951.78
2019-06-07T19:51:07.325Z,100951.15
2019-06-07T19:53:13.802Z,100953.31
2019-06-07T19:55:20.469Z,100954.48
2019-06-07T19:57:26.919Z,100943.17
2019-06-07T19:59:33.297Z,100951.41
2019-06-07T20:01:39.683Z,100942.76
2019-06-07T20:03:49.528Z,100943.70
2019-06-07T20:05:54.219Z,100953.53
2019-06-07T20:08:00.784Z,100944.79
2019-06-07T20:10:11.922Z,100954.29
2019-06-07T20:12:19.148Z,100952.70
2019-06-07T20:14:30.153Z,100950.64
2019-06-07T20:16:36.958Z,100955.02
2019-06-07T20:18:43.119Z,100953.22
2019-06-07T20:20:50.516Z,100949.59
2019-06-07T20:22:56.767Z,100955.02
2019-06-07T20:25:03.326Z,100952.36
2019-06-07T20:27:09.461Z,100950.64
2019-06-07T20:29:25.836Z,100954.16
2019-06-07T20:31:23.994Z,100948.73
2019-06-07T20:33:32.881Z,100954.71
2019-06-07T20:35:40.087Z,100957.25
2019-06-07T20:37:48.096Z,100955.15
2019-06-07T20:40:02.298Z,100958.36
2019-06-07T20:42:07.797Z,100961.55
2019-06-07T20:44:16.646Z,100959.44
2019-06-07T20:46:24.459Z,100959.66
2019-06-07T20:48:30.623Z,100956.44
2019-06-07T20:50:36.889Z,100957.52
2019-06-07T20:52:43.170Z,100954.20
2019-06-07T20:54:51.051Z,100952.70
2019-06-07T20:57:00.491Z,100960.83
2019-06-07T20:59:07.160Z,100958.99
2019-06-07T21:01:13.396Z,100954.52
2019-06-07T21:03:19.555Z,100948.32
2019-06-07T21:05:25.717Z,100953.66
2019-06-07T21:07:31.876Z,100956.23
2019-06-07T21:09:38.128Z,100955.37
2019-06-07T21:11:44.386Z,100948.53
2019-06-07T21:13:50.624Z,100953.23
2019-06-07T21:15:56.912Z,100957.95
2019-06-07T21:18:04.811Z,100962.60
2019-06-07T21:20:14.165Z,100974.22
2019-06-07T21:22:19.595Z,100971.64
2019-06-07T21:24:25.861Z,100964.41
2019-06-07T21:26:32.221Z,100967.29
2019-06-07T21:28:39.884Z,100967.38
2019-06-07T21:30:46.388Z,100969.31
2019-06-07T21:32:52.631Z,100961.40
2019-06-07T21:34:58.805Z,100958.00
2019-06-07T21:39:20.648Z,100967.80
2019-06-07T21:41:27.021Z,100969.82
2019-06-07T21:43:33.162Z,100966.20
2019-06-07T21:45:39.422Z,100966.42
2019-06-07T21:47:50.278Z,100966.50
2019-06-07T21:49:56.749Z,100963.10
2019-06-07T21:52:04.296Z,100963.19
2019-06-07T21:54:13.063Z,100962.45
2019-06-07T21:56:18.597Z,100967.99
2019-06-07T21:58:25.049Z,100966.48
2019-06-07T22:01:04.285Z,100970.22
2019-06-07T22:03:11.875Z,100981.95
2019-06-07T22:05:18.242Z,100983.09
2019-06-07T22:07:24.409Z,100991.09
2019-06-07T22:09:30.565Z,100998.11
2019-06-07T22:11:36.826Z,100992.61
2019-06-07T22:13:42.991Z,100994.50
2019-06-07T22:15:49.150Z,100997.38
2019-06-07T22:17:55.518Z,100995.03
2019-06-07T22:20:01.765Z,100998.94
2019-06-07T22:22:09.335Z,101000.73
2019-06-07T22:24:16.026Z,100993.61
2019-06-07T22:26:22.195Z,100996.47
2019-06-07T22:28:28.343Z,100996.87
2019-06-07T22:30:34.474Z,100995.81
2019-06-07T22:32:41.070Z,101000.20
2019-06-07T22:34:47.336Z,101002.95
2019-06-07T22:36:53.606Z,100997.62
2019-06-07T22:38:59.855Z,100995.81
2019-06-07T22:41:07.648Z,101002.75
2019-06-07T22:43:14.217Z,100999.55
2019-06-07T22:45:20.711Z,100989.83
2019-06-07T22:47:27.557Z,100989.95
2019-06-07T22:49:33.817Z,100991.47
2019-06-07T22:51:39.971Z,100985.08
2019-06-07T22:54:05.801Z,100985.48
2019-06-07T22:56:22.592Z,100984.17
2019-06-07T22:58:28.969Z,100985.41
2019-06-07T23:00:36.675Z,100987.33
2019-06-07T23:02:42.923Z,100984.95
2019-06-07T23:04:50.520Z,100986.09
2019-06-07T23:06:56.778Z,100983.71
2019-06-07T23:09:03.040Z,100976.87
2019-06-07T23:11:11.114Z,100980.59
2019-06-07T23:13:17.809Z,100977.27
2019-06-07T23:15:24.882Z,100981.84
2019-06-07T23:17:31.146Z,100990.77
2019-06-07T23:19:37.300Z,100984.59
2019-06-07T23:21:43.447Z,100984.11
2019-06-07T23:23:49.511Z,100982.51
2019-06-07T23:25:56.385Z,100984.39
2019-06-07T23:28:02.551Z,100984.11
2019-06-07T23:30:12.324Z,100980.59
2019-06-07T23:32:20.160Z,100986.77
2019-06-07T23:34:26.543Z,100988.77
2019-06-07T23:36:32.909Z,100982.70
2019-06-07T23:38:39.078Z,100976.92
2019-06-07T23:40:45.332Z,100978.14
2019-06-07T23:42:51.493Z,100971.33
2019-06-07T23:44:57.768Z,100979.31
2019-06-07T23:47:11.423Z,100975.02
2019-06-07T23:49:12.466Z,100973.21
2019-06-07T23:51:20.008Z,100975.32
2019-06-07T23:53:26.166Z,100978.06
2019-06-07T23:55:32.434Z,100980.65
2019-06-07T23:57:39.096Z,100987.46
2019-06-07T23:59:45.248Z,100989.30
